sensor_id;sensor_type;location;lat;lon;timestamp;pressure;altitude;pressure_sealevel;temperature
74485;BMP280;62942;52.462;10.846;2024-01-30T00:00:31;102020;;;
74485;BMP280;62942;52.462;10.846;2024-01-30T00:01:31;102020;;;
74485;BMP280;62942;52.462;10.846;2024-01-30T00:02:40;102020;;;
74485;BMP280;62942;52.462;10.846;2024-01-30T00:03:41;102020;;;
74485;BMP280;62942;52.462;10.846;2024-01-30T00:04:51;102020;;;
74485;BMP280;62942;52.462;10.846;2024-01-30T00:06:02;102020;;;
74485;BMP280;62942;52.462;10.846;2024-01-30T00:07:01;102020;;;
74485;BMP280;62942;52.462;10.846;2024-01-30T00:08:00;102020;;;
74485;BMP280;62942;52.462;10.846;2024-01-30T00:09:11;102020;;;
74485;BMP280;62942;52.462;10.846;2024-01-30T00:10:20;102020;;;
74485;BMP280;62942;52.462;10.846;2024-01-30T00:11:30;102020;;;
74485;BMP280;62942;52.462;10.846;2024-01-30T00:12:40;102020;;;
74485;BMP280;62942;52.462;10.846;2024-01-30T00:13:41;102020;;;
74485;BMP280;62942;52.462;10.846;2024-01-30T00:14:50;102010;;;
74485;BMP280;62942;52.462;10.846;2024-01-30T00:16:00;102020;;;
74485;BMP280;62942;52.462;10.846;2024-01-30T00:17:00;102020;;;
74485;BMP280;62942;52.462;10.846;2024-01-30T00:18:11;102020;;;
74485;BMP280;62942;52.462;10.846;2024-01-30T00:19:20;102020;;;
74485;BMP280;62942;52.462;10.846;2024-01-30T00:20:30;102030;;;
74485;BMP280;62942;52.462;10.846;2024-01-30T00:21:30;102020;;;
74485;BMP280;62942;52.462;10.846;2024-01-30T00:22:40;102020;;;
74485;BMP280;62942;52.462;10.846;2024-01-30T00:23:40;102030;;;
74485;BMP280;62942;52.462;10.846;2024-01-30T00:24:40;102030;;;
74485;BMP280;62942;52.462;10.846;2024-01-30T00:25:50;102030;;;
74485;BMP280;62942;52.462;10.846;2024-01-30T00:27:00;102030;;;
74485;BMP280;62942;52.462;10.846;2024-01-30T00:28:00;102030;;;
74485;BMP280;62942;52.462;10.846;2024-01-30T00:29:10;102030;;;
74485;BMP280;62942;52.462;10.846;2024-01-30T00:30:20;102030;;;
74485;BMP280;62942;52.462;10.846;2024-01-30T00:31:31;102010;;;
74485;BMP280;62942;52.462;10.846;2024-01-30T00:32:40;102020;;;
74485;BMP280;62942;52.462;10.846;2024-01-30T00:33:50;102010;;;
74485;BMP280;62942;52.462;10.846;2024-01-30T00:35:00;102010;;;
74485;BMP280;62942;52.462;10.846;2024-01-30T00:36:10;102010;;;
74485;BMP280;62942;52.462;10.846;2024-01-30T00:37:20;102010;;;
74485;BMP280;62942;52.462;10.846;2024-01-30T00:38:30;102010;;;
74485;BMP280;62942;52.462;10.846;2024-01-30T00:39:30;102010;;;
74485;BMP280;62942;52.462;10.846;2024-01-30T00:40:41;102010;;;
74485;BMP280;62942;52.462;10.846;2024-01-30T00:41:40;102010;;;
74485;BMP280;62942;52.462;10.846;2024-01-30T00:42:41;102000;;;
74485;BMP280;62942;52.462;10.846;2024-01-30T00:43:50;102010;;;
74485;BMP280;62942;52.462;10.846;2024-01-30T00:44:50;102010;;;
74485;BMP280;62942;52.462;10.846;2024-01-30T00:46:00;102000;;;
74485;BMP280;62942;52.462;10.846;2024-01-30T00:47:10;102000;;;
74485;BMP280;62942;52.462;10.846;2024-01-30T00:48:10;102010;;;
74485;BMP280;62942;52.462;10.846;2024-01-30T00:49:10;102010;;;
74485;BMP280;62942;52.462;10.846;2024-01-30T00:50:20;102020;;;
74485;BMP280;62942;52.462;10.846;2024-01-30T00:51:30;102020;;;
74485;BMP280;62942;52.462;10.846;2024-01-30T00:52:40;102020;;;
74485;BMP280;62942;52.462;10.846;2024-01-30T00:53:50;102020;;;
74485;BMP280;62942;52.462;10.846;2024-01-30T00:54:50;102020;;;
74485;BMP280;62942;52.462;10.846;2024-01-30T00:55:50;102020;;;
74485;BMP280;62942;52.462;10.846;2024-01-30T00:57:00;102010;;;
74485;BMP280;62942;52.462;10.846;2024-01-30T00:58:10;102010;;;
74485;BMP280;62942;52.462;10.846;2024-01-30T00:59:20;102010;;;
74485;BMP280;62942;52.462;10.846;2024-01-30T01:00:31;102010;;;
74485;BMP280;62942;52.462;10.846;2024-01-30T01:01:40;102010;;;
74485;BMP280;62942;52.462;10.846;2024-01-30T01:02:50;102010;;;
74485;BMP280;62942;52.462;10.846;2024-01-30T01:03:50;102010;;;
74485;BMP280;62942;52.462;10.846;2024-01-30T01:05:00;102020;;;
74485;BMP280;62942;52.462;10.846;2024-01-30T01:06:00;102010;;;
74485;BMP280;62942;52.462;10.846;2024-01-30T01:07:10;102010;;;
74485;BMP280;62942;52.462;10.846;2024-01-30T01:08:10;102020;;;
74485;BMP280;62942;52.462;10.846;2024-01-30T01:09:10;102020;;;
74485;BMP280;62942;52.462;10.846;2024-01-30T01:10:20;102020;;;
74485;BMP280;62942;52.462;10.846;2024-01-30T01:11:30;102020;;;
74485;BMP280;62942;52.462;10.846;2024-01-30T01:12:40;102020;;;
74485;BMP280;62942;52.462;10.846;2024-01-30T01:13:40;102020;;;
74485;BMP280;62942;52.462;10.846;2024-01-30T01:14:50;102010;;;
74485;BMP280;62942;52.462;10.846;2024-01-30T01:16:00;102010;;;
74485;BMP280;62942;52.462;10.846;2024-01-30T01:17:11;102000;;;
74485;BMP280;62942;52.462;10.846;2024-01-30T01:18:10;102000;;;
74485;BMP280;62942;52.462;10.846;2024-01-30T01:19:10;102010;;;
74485;BMP280;62942;52.462;10.846;2024-01-30T01:20:20;102000;;;
74485;BMP280;62942;52.462;10.846;2024-01-30T01:21:30;102000;;;
74485;BMP280;62942;52.462;10.846;2024-01-30T01:22:40;102000;;;
74485;BMP280;62942;52.462;10.846;2024-01-30T01:23:40;102010;;;
74485;BMP280;62942;52.462;10.846;2024-01-30T01:24:50;102000;;;
74485;BMP280;62942;52.462;10.846;2024-01-30T01:26:00;102010;;;
74485;BMP280;62942;52.462;10.846;2024-01-30T01:27:00;102000;;;
74485;BMP280;62942;52.462;10.846;2024-01-30T01:28:00;102020;;;
74485;BMP280;62942;52.462;10.846;2024-01-30T01:29:10;102020;;;
74485;BMP280;62942;52.462;10.846;2024-01-30T01:30:20;102010;;;
74485;BMP280;62942;52.462;10.846;2024-01-30T01:31:20;102010;;;
74485;BMP280;62942;52.462;10.846;2024-01-30T01:32:30;102010;;;
74485;BMP280;62942;52.462;10.846;2024-01-30T01:33:40;102010;;;
74485;BMP280;62942;52.462;10.846;2024-01-30T01:34:50;102010;;;
74485;BMP280;62942;52.462;10.846;2024-01-30T01:35:50;102010;;;
74485;BMP280;62942;52.462;10.846;2024-01-30T01:37:00;102010;;;
74485;BMP280;62942;52.462;10.846;2024-01-30T01:38:10;102010;;;
74485;BMP280;62942;52.462;10.846;2024-01-30T01:39:21;102010;;;
74485;BMP280;62942;52.462;10.846;2024-01-30T01:40:30;102010;;;
74485;BMP280;62942;52.462;10.846;2024-01-30T01:41:40;102010;;;
74485;BMP280;62942;52.462;10.846;2024-01-30T01:42:51;102010;;;
74485;BMP280;62942;52.462;10.846;2024-01-30T01:44:00;102000;;;
74485;BMP280;62942;52.462;10.846;2024-01-30T01:45:10;102000;;;
74485;BMP280;62942;52.462;10.846;2024-01-30T01:46:20;102000;;;
74485;BMP280;62942;52.462;10.846;2024-01-30T01:47:30;102000;;;
74485;BMP280;62942;52.462;10.846;2024-01-30T01:48:40;102000;;;
74485;BMP280;62942;52.462;10.846;2024-01-30T01:49:40;102000;;;
74485;BMP280;62942;52.462;10.846;2024-01-30T01:50:51;102000;;;
74485;BMP280;62942;52.462;10.846;2024-01-30T01:52:00;101990;;;
74485;BMP280;62942;52.462;10.846;2024-01-30T01:53:10;102000;;;
74485;BMP280;62942;52.462;10.846;2024-01-30T01:54:20;101990;;;
74485;BMP280;62942;52.462;10.846;2024-01-30T01:55:30;101990;;;
74485;BMP280;62942;52.462;10.846;2024-01-30T01:56:40;101990;;;
74485;BMP280;62942;52.462;10.846;2024-01-30T01:57:51;101990;;;
74485;BMP280;62942;52.462;10.846;2024-01-30T01:59:03;101990;;;
74485;BMP280;62942;52.462;10.846;2024-01-30T02:00:10;101990;;;
74485;BMP280;62942;52.462;10.846;2024-01-30T02:01:20;101990;;;
74485;BMP280;62942;52.462;10.846;2024-01-30T02:02:30;102000;;;
74485;BMP280;62942;52.462;10.846;2024-01-30T02:03:30;101990;;;
74485;BMP280;62942;52.462;10.846;2024-01-30T02:04:40;101990;;;
74485;BMP280;62942;52.462;10.846;2024-01-30T02:05:50;102010;;;
74485;BMP280;62942;52.462;10.846;2024-01-30T02:06:50;102000;;;
74485;BMP280;62942;52.462;10.846;2024-01-30T02:08:00;102010;;;
74485;BMP280;62942;52.462;10.846;2024-01-30T02:09:10;102000;;;
74485;BMP280;62942;52.462;10.846;2024-01-30T02:10:20;102010;;;
74485;BMP280;62942;52.462;10.846;2024-01-30T02:11:30;102010;;;
74485;BMP280;62942;52.462;10.846;2024-01-30T02:12:40;102010;;;
74485;BMP280;62942;52.462;10.846;2024-01-30T02:13:40;102000;;;
74485;BMP280;62942;52.462;10.846;2024-01-30T02:14:50;102000;;;
74485;BMP280;62942;52.462;10.846;2024-01-30T02:16:00;102000;;;
74485;BMP280;62942;52.462;10.846;2024-01-30T02:17:00;102000;;;
74485;BMP280;62942;52.462;10.846;2024-01-30T02:18:10;102000;;;
74485;BMP280;62942;52.462;10.846;2024-01-30T02:19:10;101990;;;
74485;BMP280;62942;52.462;10.846;2024-01-30T02:20:20;102000;;;
74485;BMP280;62942;52.462;10.846;2024-01-30T02:21:20;101980;;;
74485;BMP280;62942;52.462;10.846;2024-01-30T02:22:30;101980;;;
74485;BMP280;62942;52.462;10.846;2024-01-30T02:23:30;101990;;;
74485;BMP280;62942;52.462;10.846;2024-01-30T02:24:40;101990;;;
74485;BMP280;62942;52.462;10.846;2024-01-30T02:25:50;101990;;;
74485;BMP280;62942;52.462;10.846;2024-01-30T02:27:00;101990;;;
74485;BMP280;62942;52.462;10.846;2024-01-30T02:28:10;101990;;;
74485;BMP280;62942;52.462;10.846;2024-01-30T02:29:20;101990;;;
74485;BMP280;62942;52.462;10.846;2024-01-30T02:30:20;101990;;;
74485;BMP280;62942;52.462;10.846;2024-01-30T02:31:30;101980;;;
74485;BMP280;62942;52.462;10.846;2024-01-30T02:32:40;101980;;;
74485;BMP280;62942;52.462;10.846;2024-01-30T02:33:40;101990;;;
74485;BMP280;62942;52.462;10.846;2024-01-30T02:34:50;101980;;;
74485;BMP280;62942;52.462;10.846;2024-01-30T02:36:00;101990;;;
74485;BMP280;62942;52.462;10.846;2024-01-30T02:37:10;101990;;;
74485;BMP280;62942;52.462;10.846;2024-01-30T02:38:10;101990;;;
74485;BMP280;62942;52.462;10.846;2024-01-30T02:39:20;101980;;;
74485;BMP280;62942;52.462;10.846;2024-01-30T02:40:20;101980;;;
74485;BMP280;62942;52.462;10.846;2024-01-30T02:41:30;101990;;;
74485;BMP280;62942;52.462;10.846;2024-01-30T02:42:30;101990;;;
74485;BMP280;62942;52.462;10.846;2024-01-30T02:43:40;101990;;;
74485;BMP280;62942;52.462;10.846;2024-01-30T02:44:50;101990;;;
74485;BMP280;62942;52.462;10.846;2024-01-30T02:46:00;101980;;;
74485;BMP280;62942;52.462;10.846;2024-01-30T02:47:10;101980;;;
74485;BMP280;62942;52.462;10.846;2024-01-30T02:48:20;101980;;;
74485;BMP280;62942;52.462;10.846;2024-01-30T02:49:20;101980;;;
74485;BMP280;62942;52.462;10.846;2024-01-30T02:50:30;101970;;;
74485;BMP280;62942;52.462;10.846;2024-01-30T02:51:40;101980;;;
74485;BMP280;62942;52.462;10.846;2024-01-30T02:52:50;101970;;;
74485;BMP280;62942;52.462;10.846;2024-01-30T02:54:00;101980;;;
74485;BMP280;62942;52.462;10.846;2024-01-30T02:55:10;101980;;;
74485;BMP280;62942;52.462;10.846;2024-01-30T02:56:20;101980;;;
74485;BMP280;62942;52.462;10.846;2024-01-30T02:57:30;101980;;;
74485;BMP280;62942;52.462;10.846;2024-01-30T02:58:40;101970;;;
74485;BMP280;62942;52.462;10.846;2024-01-30T02:59:50;101970;;;
74485;BMP280;62942;52.462;10.846;2024-01-30T03:01:00;101970;;;
74485;BMP280;62942;52.462;10.846;2024-01-30T03:02:10;101980;;;
74485;BMP280;62942;52.462;10.846;2024-01-30T03:03:10;101980;;;
74485;BMP280;62942;52.462;10.846;2024-01-30T03:04:20;101970;;;
74485;BMP280;62942;52.462;10.846;2024-01-30T03:05:30;101970;;;
74485;BMP280;62942;52.462;10.846;2024-01-30T03:06:30;101970;;;
74485;BMP280;62942;52.462;10.846;2024-01-30T03:07:40;101970;;;
74485;BMP280;62942;52.462;10.846;2024-01-30T03:08:50;101980;;;
74485;BMP280;62942;52.462;10.846;2024-01-30T03:10:00;101970;;;
74485;BMP280;62942;52.462;10.846;2024-01-30T03:11:10;101970;;;
74485;BMP280;62942;52.462;10.846;2024-01-30T03:12:20;101970;;;
74485;BMP280;62942;52.462;10.846;2024-01-30T03:13:30;101980;;;
74485;BMP280;62942;52.462;10.846;2024-01-30T03:14:30;101970;;;
74485;BMP280;62942;52.462;10.846;2024-01-30T03:15:40;101980;;;
74485;BMP280;62942;52.462;10.846;2024-01-30T03:16:50;101970;;;
74485;BMP280;62942;52.462;10.846;2024-01-30T03:18:01;101960;;;
74485;BMP280;62942;52.462;10.846;2024-01-30T03:19:00;101960;;;
74485;BMP280;62942;52.462;10.846;2024-01-30T03:20:10;101970;;;
74485;BMP280;62942;52.462;10.846;2024-01-30T03:21:20;101960;;;
74485;BMP280;62942;52.462;10.846;2024-01-30T03:22:30;101960;;;
74485;BMP280;62942;52.462;10.846;2024-01-30T03:23:40;101960;;;
74485;BMP280;62942;52.462;10.846;2024-01-30T03:24:50;101960;;;
74485;BMP280;62942;52.462;10.846;2024-01-30T03:26:00;101960;;;
74485;BMP280;62942;52.462;10.846;2024-01-30T03:27:10;101960;;;
74485;BMP280;62942;52.462;10.846;2024-01-30T03:28:20;101950;;;
74485;BMP280;62942;52.462;10.846;2024-01-30T03:29:30;101960;;;
74485;BMP280;62942;52.462;10.846;2024-01-30T03:30:40;101950;;;
74485;BMP280;62942;52.462;10.846;2024-01-30T03:31:50;101960;;;
74485;BMP280;62942;52.462;10.846;2024-01-30T03:32:50;101960;;;
74485;BMP280;62942;52.462;10.846;2024-01-30T03:34:00;101950;;;
74485;BMP280;62942;52.462;10.846;2024-01-30T03:35:00;101950;;;
74485;BMP280;62942;52.462;10.846;2024-01-30T03:36:10;101950;;;
74485;BMP280;62942;52.462;10.846;2024-01-30T03:37:20;101950;;;
74485;BMP280;62942;52.462;10.846;2024-01-30T03:38:20;101950;;;
74485;BMP280;62942;52.462;10.846;2024-01-30T03:39:30;101950;;;
74485;BMP280;62942;52.462;10.846;2024-01-30T03:40:40;101960;;;
74485;BMP280;62942;52.462;10.846;2024-01-30T03:41:50;101960;;;
74485;BMP280;62942;52.462;10.846;2024-01-30T03:43:00;101950;;;
74485;BMP280;62942;52.462;10.846;2024-01-30T03:44:10;101950;;;
74485;BMP280;62942;52.462;10.846;2024-01-30T03:45:20;101950;;;
74485;BMP280;62942;52.462;10.846;2024-01-30T03:46:30;101950;;;
74485;BMP280;62942;52.462;10.846;2024-01-30T03:47:30;101950;;;
74485;BMP280;62942;52.462;10.846;2024-01-30T03:48:40;101950;;;
74485;BMP280;62942;52.462;10.846;2024-01-30T03:49:50;101950;;;
74485;BMP280;62942;52.462;10.846;2024-01-30T03:51:00;101960;;;
74485;BMP280;62942;52.462;10.846;2024-01-30T03:52:10;101960;;;
74485;BMP280;62942;52.462;10.846;2024-01-30T03:53:20;101950;;;
74485;BMP280;62942;52.462;10.846;2024-01-30T03:54:30;101950;;;
74485;BMP280;62942;52.462;10.846;2024-01-30T03:55:40;101950;;;
74485;BMP280;62942;52.462;10.846;2024-01-30T03:56:40;101950;;;
74485;BMP280;62942;52.462;10.846;2024-01-30T03:57:50;101960;;;
74485;BMP280;62942;52.462;10.846;2024-01-30T03:59:00;101950;;;
74485;BMP280;62942;52.462;10.846;2024-01-30T04:00:10;101950;;;
74485;BMP280;62942;52.462;10.846;2024-01-30T04:01:20;101950;;;
74485;BMP280;62942;52.462;10.846;2024-01-30T04:02:20;101950;;;
74485;BMP280;62942;52.462;10.846;2024-01-30T04:03:30;101950;;;
74485;BMP280;62942;52.462;10.846;2024-01-30T04:04:40;101950;;;
74485;BMP280;62942;52.462;10.846;2024-01-30T04:05:51;101950;;;
74485;BMP280;62942;52.462;10.846;2024-01-30T04:07:00;101950;;;
74485;BMP280;62942;52.462;10.846;2024-01-30T04:08:10;101950;;;
74485;BMP280;62942;52.462;10.846;2024-01-30T04:09:20;101950;;;
74485;BMP280;62942;52.462;10.846;2024-01-30T04:10:30;101950;;;
74485;BMP280;62942;52.462;10.846;2024-01-30T04:11:40;101940;;;
74485;BMP280;62942;52.462;10.846;2024-01-30T04:12:50;101940;;;
74485;BMP280;62942;52.462;10.846;2024-01-30T04:14:00;101950;;;
74485;BMP280;62942;52.462;10.846;2024-01-30T04:15:10;101950;;;
74485;BMP280;62942;52.462;10.846;2024-01-30T04:16:20;101950;;;
74485;BMP280;62942;52.462;10.846;2024-01-30T04:17:30;101950;;;
74485;BMP280;62942;52.462;10.846;2024-01-30T04:18:40;101940;;;
74485;BMP280;62942;52.462;10.846;2024-01-30T04:19:50;101950;;;
74485;BMP280;62942;52.462;10.846;2024-01-30T04:21:00;101920;;;
74485;BMP280;62942;52.462;10.846;2024-01-30T04:22:10;101940;;;
74485;BMP280;62942;52.462;10.846;2024-01-30T04:23:20;101930;;;
74485;BMP280;62942;52.462;10.846;2024-01-30T04:24:30;101940;;;
74485;BMP280;62942;52.462;10.846;2024-01-30T04:25:40;101940;;;
74485;BMP280;62942;52.462;10.846;2024-01-30T04:26:40;101930;;;
74485;BMP280;62942;52.462;10.846;2024-01-30T04:27:50;101940;;;
74485;BMP280;62942;52.462;10.846;2024-01-30T04:29:00;101930;;;
74485;BMP280;62942;52.462;10.846;2024-01-30T04:30:10;101930;;;
74485;BMP280;62942;52.462;10.846;2024-01-30T04:31:20;101930;;;
74485;BMP280;62942;52.462;10.846;2024-01-30T04:32:20;101930;;;
74485;BMP280;62942;52.462;10.846;2024-01-30T04:33:30;101930;;;
74485;BMP280;62942;52.462;10.846;2024-01-30T04:34:30;101930;;;
74485;BMP280;62942;52.462;10.846;2024-01-30T04:35:40;101930;;;
74485;BMP280;62942;52.462;10.846;2024-01-30T04:36:50;101930;;;
74485;BMP280;62942;52.462;10.846;2024-01-30T04:37:51;101930;;;
74485;BMP280;62942;52.462;10.846;2024-01-30T04:39:00;101930;;;
74485;BMP280;62942;52.462;10.846;2024-01-30T04:40:00;101930;;;
74485;BMP280;62942;52.462;10.846;2024-01-30T04:41:00;101930;;;
74485;BMP280;62942;52.462;10.846;2024-01-30T04:42:10;101930;;;
74485;BMP280;62942;52.462;10.846;2024-01-30T04:43:10;101910;;;
74485;BMP280;62942;52.462;10.846;2024-01-30T04:44:20;101910;;;
74485;BMP280;62942;52.462;10.846;2024-01-30T04:45:20;101930;;;
74485;BMP280;62942;52.462;10.846;2024-01-30T04:46:30;101930;;;
74485;BMP280;62942;52.462;10.846;2024-01-30T04:47:40;101930;;;
74485;BMP280;62942;52.462;10.846;2024-01-30T04:48:50;101930;;;
74485;BMP280;62942;52.462;10.846;2024-01-30T04:49:51;101930;;;
74485;BMP280;62942;52.462;10.846;2024-01-30T04:51:00;101930;;;
74485;BMP280;62942;52.462;10.846;2024-01-30T04:52:10;101930;;;
74485;BMP280;62942;52.462;10.846;2024-01-30T04:53:20;101930;;;
74485;BMP280;62942;52.462;10.846;2024-01-30T04:54:20;101930;;;
74485;BMP280;62942;52.462;10.846;2024-01-30T04:55:30;101930;;;
74485;BMP280;62942;52.462;10.846;2024-01-30T04:56:30;101930;;;
74485;BMP280;62942;52.462;10.846;2024-01-30T04:57:40;101930;;;
74485;BMP280;62942;52.462;10.846;2024-01-30T04:58:50;101930;;;
74485;BMP280;62942;52.462;10.846;2024-01-30T05:00:00;101930;;;
74485;BMP280;62942;52.462;10.846;2024-01-30T05:01:14;101930;;;
74485;BMP280;62942;52.462;10.846;2024-01-30T05:02:20;101930;;;
74485;BMP280;62942;52.462;10.846;2024-01-30T05:03:32;101930;;;
74485;BMP280;62942;52.462;10.846;2024-01-30T05:04:40;101920;;;
74485;BMP280;62942;52.462;10.846;2024-01-30T05:05:40;101930;;;
74485;BMP280;62942;52.462;10.846;2024-01-30T05:06:50;101930;;;
74485;BMP280;62942;52.462;10.846;2024-01-30T05:07:50;101920;;;
74485;BMP280;62942;52.462;10.846;2024-01-30T05:08:50;101920;;;
74485;BMP280;62942;52.462;10.846;2024-01-30T05:09:50;101930;;;
74485;BMP280;62942;52.462;10.846;2024-01-30T05:11:00;101930;;;
74485;BMP280;62942;52.462;10.846;2024-01-30T05:12:00;101930;;;
74485;BMP280;62942;52.462;10.846;2024-01-30T05:13:00;101930;;;
74485;BMP280;62942;52.462;10.846;2024-01-30T05:14:10;101930;;;
74485;BMP280;62942;52.462;10.846;2024-01-30T05:15:20;101930;;;
74485;BMP280;62942;52.462;10.846;2024-01-30T05:16:30;101930;;;
74485;BMP280;62942;52.462;10.846;2024-01-30T05:17:40;101920;;;
74485;BMP280;62942;52.462;10.846;2024-01-30T05:18:40;101930;;;
74485;BMP280;62942;52.462;10.846;2024-01-30T05:19:50;101930;;;
74485;BMP280;62942;52.462;10.846;2024-01-30T05:21:00;101930;;;
74485;BMP280;62942;52.462;10.846;2024-01-30T05:22:00;101920;;;
74485;BMP280;62942;52.462;10.846;2024-01-30T05:23:10;101920;;;
74485;BMP280;62942;52.462;10.846;2024-01-30T05:24:10;101920;;;
74485;BMP280;62942;52.462;10.846;2024-01-30T05:25:10;101920;;;
74485;BMP280;62942;52.462;10.846;2024-01-30T05:26:20;101930;;;
74485;BMP280;62942;52.462;10.846;2024-01-30T05:27:20;101930;;;
74485;BMP280;62942;52.462;10.846;2024-01-30T05:28:30;101930;;;
74485;BMP280;62942;52.462;10.846;2024-01-30T05:29:40;101930;;;
74485;BMP280;62942;52.462;10.846;2024-01-30T05:30:50;101930;;;
74485;BMP280;62942;52.462;10.846;2024-01-30T05:32:00;101920;;;
74485;BMP280;62942;52.462;10.846;2024-01-30T05:33:10;101930;;;
74485;BMP280;62942;52.462;10.846;2024-01-30T05:34:20;101920;;;
74485;BMP280;62942;52.462;10.846;2024-01-30T05:35:20;101920;;;
74485;BMP280;62942;52.462;10.846;2024-01-30T05:36:30;101920;;;
74485;BMP280;62942;52.462;10.846;2024-01-30T05:37:40;101920;;;
74485;BMP280;62942;52.462;10.846;2024-01-30T05:38:50;101920;;;
74485;BMP280;62942;52.462;10.846;2024-01-30T05:40:00;101920;;;
74485;BMP280;62942;52.462;10.846;2024-01-30T05:41:00;101920;;;
74485;BMP280;62942;52.462;10.846;2024-01-30T05:42:00;101920;;;
74485;BMP280;62942;52.462;10.846;2024-01-30T05:43:10;101910;;;
74485;BMP280;62942;52.462;10.846;2024-01-30T05:44:20;101920;;;
74485;BMP280;62942;52.462;10.846;2024-01-30T05:45:30;101920;;;
74485;BMP280;62942;52.462;10.846;2024-01-30T05:46:40;101910;;;
74485;BMP280;62942;52.462;10.846;2024-01-30T05:47:40;101920;;;
74485;BMP280;62942;52.462;10.846;2024-01-30T05:48:40;101920;;;
74485;BMP280;62942;52.462;10.846;2024-01-30T05:49:50;101920;;;
74485;BMP280;62942;52.462;10.846;2024-01-30T05:50:50;101920;;;
74485;BMP280;62942;52.462;10.846;2024-01-30T05:52:01;101920;;;
74485;BMP280;62942;52.462;10.846;2024-01-30T05:53:10;101920;;;
74485;BMP280;62942;52.462;10.846;2024-01-30T05:54:10;101920;;;
74485;BMP280;62942;52.462;10.846;2024-01-30T05:55:20;101930;;;
74485;BMP280;62942;52.462;10.846;2024-01-30T05:56:30;101930;;;
74485;BMP280;62942;52.462;10.846;2024-01-30T05:57:30;101920;;;
74485;BMP280;62942;52.462;10.846;2024-01-30T05:58:40;101930;;;
74485;BMP280;62942;52.462;10.846;2024-01-30T05:59:40;101920;;;
74485;BMP280;62942;52.462;10.846;2024-01-30T06:00:50;101920;;;
74485;BMP280;62942;52.462;10.846;2024-01-30T06:02:00;101920;;;
74485;BMP280;62942;52.462;10.846;2024-01-30T06:03:10;101920;;;
74485;BMP280;62942;52.462;10.846;2024-01-30T06:04:20;101920;;;
74485;BMP280;62942;52.462;10.846;2024-01-30T06:05:30;101930;;;
74485;BMP280;62942;52.462;10.846;2024-01-30T06:06:30;101920;;;
74485;BMP280;62942;52.462;10.846;2024-01-30T06:07:40;101930;;;
74485;BMP280;62942;52.462;10.846;2024-01-30T06:08:50;101920;;;
74485;BMP280;62942;52.462;10.846;2024-01-30T06:10:00;101920;;;
74485;BMP280;62942;52.462;10.846;2024-01-30T06:11:10;101920;;;
74485;BMP280;62942;52.462;10.846;2024-01-30T06:12:10;101910;;;
74485;BMP280;62942;52.462;10.846;2024-01-30T06:13:20;101920;;;
74485;BMP280;62942;52.462;10.846;2024-01-30T06:14:30;101910;;;
74485;BMP280;62942;52.462;10.846;2024-01-30T06:15:30;101910;;;
74485;BMP280;62942;52.462;10.846;2024-01-30T06:16:30;101910;;;
74485;BMP280;62942;52.462;10.846;2024-01-30T06:17:30;101910;;;
74485;BMP280;62942;52.462;10.846;2024-01-30T06:18:40;101910;;;
74485;BMP280;62942;52.462;10.846;2024-01-30T06:19:50;101920;;;
74485;BMP280;62942;52.462;10.846;2024-01-30T06:21:00;101920;;;
74485;BMP280;62942;52.462;10.846;2024-01-30T06:22:10;101920;;;
74485;BMP280;62942;52.462;10.846;2024-01-30T06:23:10;101920;;;
74485;BMP280;62942;52.462;10.846;2024-01-30T06:24:20;101910;;;
74485;BMP280;62942;52.462;10.846;2024-01-30T06:25:20;101910;;;
74485;BMP280;62942;52.462;10.846;2024-01-30T06:26:30;101910;;;
74485;BMP280;62942;52.462;10.846;2024-01-30T06:27:40;101910;;;
74485;BMP280;62942;52.462;10.846;2024-01-30T06:28:50;101910;;;
74485;BMP280;62942;52.462;10.846;2024-01-30T06:29:50;101910;;;
74485;BMP280;62942;52.462;10.846;2024-01-30T06:31:00;101910;;;
74485;BMP280;62942;52.462;10.846;2024-01-30T06:32:00;101910;;;
74485;BMP280;62942;52.462;10.846;2024-01-30T06:33:11;101900;;;
74485;BMP280;62942;52.462;10.846;2024-01-30T06:34:10;101900;;;
74485;BMP280;62942;52.462;10.846;2024-01-30T06:35:20;101900;;;
74485;BMP280;62942;52.462;10.846;2024-01-30T06:36:30;101900;;;
74485;BMP280;62942;52.462;10.846;2024-01-30T06:37:30;101900;;;
74485;BMP280;62942;52.462;10.846;2024-01-30T06:38:40;101900;;;
74485;BMP280;62942;52.462;10.846;2024-01-30T06:39:40;101890;;;
74485;BMP280;62942;52.462;10.846;2024-01-30T06:40:50;101890;;;
74485;BMP280;62942;52.462;10.846;2024-01-30T06:42:00;101900;;;
74485;BMP280;62942;52.462;10.846;2024-01-30T06:43:00;101890;;;
74485;BMP280;62942;52.462;10.846;2024-01-30T06:44:10;101900;;;
74485;BMP280;62942;52.462;10.846;2024-01-30T06:45:20;101910;;;
74485;BMP280;62942;52.462;10.846;2024-01-30T06:46:30;101910;;;
74485;BMP280;62942;52.462;10.846;2024-01-30T06:47:40;101910;;;
74485;BMP280;62942;52.462;10.846;2024-01-30T06:48:50;101910;;;
74485;BMP280;62942;52.462;10.846;2024-01-30T06:50:00;101910;;;
74485;BMP280;62942;52.462;10.846;2024-01-30T06:51:10;101910;;;
74485;BMP280;62942;52.462;10.846;2024-01-30T06:52:20;101910;;;
74485;BMP280;62942;52.462;10.846;2024-01-30T06:53:20;101910;;;
74485;BMP280;62942;52.462;10.846;2024-01-30T06:54:30;101910;;;
74485;BMP280;62942;52.462;10.846;2024-01-30T06:55:40;101910;;;
74485;BMP280;62942;52.462;10.846;2024-01-30T06:56:40;101910;;;
74485;BMP280;62942;52.462;10.846;2024-01-30T06:57:50;101910;;;
74485;BMP280;62942;52.462;10.846;2024-01-30T06:59:00;101910;;;
74485;BMP280;62942;52.462;10.846;2024-01-30T07:00:10;101910;;;
74485;BMP280;62942;52.462;10.846;2024-01-30T07:01:20;101910;;;
74485;BMP280;62942;52.462;10.846;2024-01-30T07:02:20;101910;;;
74485;BMP280;62942;52.462;10.846;2024-01-30T07:03:30;101910;;;
74485;BMP280;62942;52.462;10.846;2024-01-30T07:04:40;101910;;;